createdAt,value
2023-01-31T00:02:29.384Z,17.43
2023-01-31T00:04:57.530Z,14.93
2023-01-31T00:07:25.698Z,20.27
2023-01-31T00:09:53.944Z,19.60
2023-01-31T00:12:22.103Z,23.77
2023-01-31T00:14:50.265Z,26.63
2023-01-31T00:17:18.388Z,15.80
2023-01-31T00:19:47.917Z,24.63
2023-01-31T00:22:16.078Z,16.60
2023-01-31T00:24:44.217Z,17.33
2023-01-31T00:27:12.384Z,19.43
2023-01-31T00:29:40.560Z,20.60
2023-01-31T00:32:08.815Z,16.13
2023-01-31T00:34:37.039Z,15.90
2023-01-31T00:37:07.094Z,14.77
2023-01-31T00:39:35.675Z,16.37
2023-01-31T00:42:03.893Z,17.80
2023-01-31T00:44:32.026Z,16.00
2023-01-31T00:47:00.200Z,19.73
2023-01-31T00:49:28.374Z,20.43
2023-01-31T00:51:56.569Z,18.37
2023-01-31T00:54:26.089Z,17.33
2023-01-31T00:56:54.260Z,18.50
2023-01-31T00:59:22.401Z,17.27
2023-01-31T01:01:50.589Z,22.43
2023-01-31T01:04:18.771Z,16.23
2023-01-31T01:06:47.640Z,16.77
2023-01-31T01:09:15.791Z,13.63
2023-01-31T01:11:45.369Z,12.87
2023-01-31T01:14:13.547Z,18.80
2023-01-31T01:16:42.254Z,13.77
2023-01-31T01:19:17.886Z,19.07
2023-01-31T01:21:46.176Z,14.90
2023-01-31T01:24:17.037Z,16.93
2023-01-31T01:26:47.120Z,12.87
2023-01-31T01:29:15.290Z,16.87
2023-01-31T01:31:43.598Z,14.77
2023-01-31T01:34:15.200Z,16.90
2023-01-31T01:36:47.484Z,11.63
2023-01-31T01:39:16.571Z,16.87
2023-01-31T01:41:46.803Z,19.37
2023-01-31T01:44:44.592Z,18.90
2023-01-31T01:47:17.958Z,15.10
2023-01-31T01:49:50.434Z,15.27
2023-01-31T01:52:19.659Z,10.17
2023-01-31T01:54:56.059Z,17.73
2023-01-31T01:57:31.760Z,17.47
2023-01-31T02:00:09.562Z,16.57
2023-01-31T02:02:38.370Z,17.30
2023-01-31T02:05:09.422Z,19.67
2023-01-31T02:07:37.718Z,18.60
2023-01-31T02:10:13.049Z,15.77
2023-01-31T02:12:43.155Z,17.17
2023-01-31T02:15:12.336Z,15.10
2023-01-31T02:17:40.556Z,17.63
2023-01-31T02:20:30.824Z,11.27
2023-01-31T02:23:22.375Z,13.40
2023-01-31T02:26:27.260Z,11.23
2023-01-31T02:29:25.612Z,14.30
2023-01-31T02:32:23.843Z,16.33
2023-01-31T02:35:03.422Z,14.90
2023-01-31T02:37:38.847Z,14.80
2023-01-31T02:40:18.584Z,10.87
2023-01-31T02:42:55.952Z,12.13
2023-01-31T02:45:32.803Z,17.47
2023-01-31T02:48:09.046Z,12.40
2023-01-31T02:50:44.091Z,19.57
2023-01-31T02:53:16.459Z,14.93
2023-01-31T02:56:08.521Z,11.63
2023-01-31T02:58:39.703Z,14.40
2023-01-31T03:01:12.046Z,19.13
2023-01-31T03:03:40.538Z,14.80
2023-01-31T03:07:00.082Z,14.70
2023-01-31T03:09:38.061Z,18.03
2023-01-31T03:12:25.704Z,15.13
2023-01-31T03:15:06.100Z,9.37
2023-01-31T03:17:47.234Z,17.80
2023-01-31T03:20:20.834Z,16.00
2023-01-31T03:22:54.667Z,14.53
2023-01-31T03:25:26.238Z,11.20
2023-01-31T03:27:58.672Z,20.47
2023-01-31T03:30:33.410Z,16.47
2023-01-31T03:33:07.536Z,15.33
2023-01-31T03:35:37.821Z,9.47
2023-01-31T03:38:15.615Z,11.87
2023-01-31T03:40:53.646Z,15.73
2023-01-31T03:43:27.206Z,20.03
2023-01-31T03:46:01.173Z,17.70
2023-01-31T03:48:36.543Z,12.73
2023-01-31T03:51:08.576Z,15.97
2023-01-31T03:53:42.155Z,18.97
2023-01-31T03:56:17.449Z,15.63
2023-01-31T03:58:50.884Z,15.23
2023-01-31T04:01:20.912Z,17.53
2023-01-31T04:03:53.104Z,18.00
2023-01-31T04:06:21.699Z,15.87
2023-01-31T04:08:51.424Z,18.20
2023-01-31T04:11:22.991Z,18.13
2023-01-31T04:13:51.139Z,17.67
2023-01-31T04:16:19.424Z,19.30
2023-01-31T04:18:47.642Z,16.17
2023-01-31T04:21:16.049Z,21.77
2023-01-31T04:23:44.226Z,23.10
2023-01-31T04:26:13.833Z,19.47
2023-01-31T04:28:42.261Z,12.03
2023-01-31T04:31:10.859Z,16.23
2023-01-31T04:33:39.087Z,17.77
2023-01-31T04:36:08.602Z,14.63
2023-01-31T04:38:37.139Z,18.33
2023-01-31T04:41:05.711Z,15.63
2023-01-31T04:43:35.253Z,18.00
2023-01-31T04:46:03.520Z,13.50
2023-01-31T04:48:31.867Z,16.83
2023-01-31T04:51:00.018Z,17.40
2023-01-31T04:53:28.225Z,20.33
2023-01-31T04:55:56.823Z,19.63
2023-01-31T04:58:26.927Z,14.93
2023-01-31T05:00:56.888Z,22.43
2023-01-31T05:03:25.095Z,15.83
2023-01-31T05:05:53.381Z,12.73
2023-01-31T05:08:21.536Z,17.93
2023-01-31T05:11:02.305Z,12.80
2023-01-31T05:13:32.786Z,13.57
2023-01-31T05:16:02.612Z,19.97
2023-01-31T05:18:31.370Z,13.60
2023-01-31T05:21:02.469Z,10.70
2023-01-31T05:23:31.429Z,21.43
2023-01-31T05:25:59.665Z,15.40
2023-01-31T05:28:27.866Z,19.90
2023-01-31T05:31:05.697Z,11.57
2023-01-31T05:33:34.511Z,10.57
2023-01-31T05:36:03.711Z,11.33
2023-01-31T05:38:31.944Z,11.07
2023-01-31T05:41:00.117Z,8.10
2023-01-31T05:43:28.271Z,17.13
2023-01-31T05:45:56.427Z,17.20
2023-01-31T05:48:26.030Z,10.37
2023-01-31T05:50:54.183Z,15.03
2023-01-31T05:53:22.790Z,12.27
2023-01-31T05:55:51.007Z,17.10
2023-01-31T05:58:19.185Z,13.93
2023-01-31T06:00:47.378Z,12.40
2023-01-31T06:03:15.623Z,12.93
2023-01-31T06:05:45.214Z,11.60
2023-01-31T06:08:13.929Z,15.93
2023-01-31T06:10:42.064Z,15.80
2023-01-31T06:13:10.231Z,14.67
2023-01-31T06:15:38.796Z,7.30
2023-01-31T06:18:07.025Z,13.00
2023-01-31T06:20:35.174Z,19.00
2023-01-31T06:23:04.781Z,10.97
2023-01-31T06:25:36.003Z,7.83
2023-01-31T06:28:04.684Z,10.03
2023-01-31T06:30:33.327Z,13.90
2023-01-31T06:33:02.234Z,16.87
2023-01-31T06:35:30.653Z,15.07
2023-01-31T06:37:58.817Z,13.90
2023-01-31T06:40:28.367Z,8.77
2023-01-31T06:42:56.579Z,17.70
2023-01-31T06:45:24.755Z,11.10
2023-01-31T06:47:53.211Z,21.87
2023-01-31T06:50:21.508Z,13.17
2023-01-31T06:52:49.642Z,15.43
2023-01-31T06:55:18.086Z,15.47
2023-01-31T06:57:51.356Z,11.30
2023-01-31T07:00:20.436Z,7.33
2023-01-31T07:02:49.409Z,14.43
2023-01-31T07:05:17.910Z,17.10
2023-01-31T07:07:46.211Z,12.97
2023-01-31T07:10:14.864Z,13.07
2023-01-31T07:12:43.083Z,18.40
2023-01-31T07:15:13.345Z,11.80
2023-01-31T07:17:41.609Z,15.17
2023-01-31T07:20:10.954Z,12.53
2023-01-31T07:22:39.102Z,11.60
2023-01-31T07:25:08.142Z,16.60
2023-01-31T07:27:36.389Z,17.97
2023-01-31T07:30:04.874Z,7.57
2023-01-31T07:32:34.531Z,14.67
2023-01-31T07:35:02.695Z,11.47
2023-01-31T07:37:31.076Z,10.30
2023-01-31T07:39:59.309Z,15.60
2023-01-31T07:42:29.011Z,18.10
2023-01-31T07:44:57.153Z,20.60
2023-01-31T07:47:25.338Z,20.60
2023-01-31T07:49:54.875Z,14.67
2023-01-31T07:52:23.101Z,12.13
2023-01-31T07:54:51.354Z,14.30
2023-01-31T07:57:19.527Z,13.87
2023-01-31T07:59:48.236Z,15.67
2023-01-31T08:02:35.451Z,15.03
2023-01-31T08:05:05.879Z,15.07
2023-01-31T08:07:34.128Z,15.83
2023-01-31T08:10:02.275Z,10.17
2023-01-31T08:12:30.812Z,10.90
2023-01-31T08:14:58.966Z,12.53
2023-01-31T08:17:27.294Z,15.63
2023-01-31T08:19:55.489Z,11.07
2023-01-31T08:22:25.618Z,16.13
2023-01-31T08:24:53.766Z,12.03
2023-01-31T08:27:21.913Z,7.60
2023-01-31T08:29:50.073Z,20.77
2023-01-31T08:32:18.280Z,13.47
2023-01-31T08:34:46.970Z,8.73
2023-01-31T08:37:16.746Z,10.53
2023-01-31T08:39:48.743Z,11.37
2023-01-31T08:42:16.887Z,10.57
2023-01-31T08:44:45.070Z,12.47
2023-01-31T08:47:13.210Z,10.77
2023-01-31T08:49:41.735Z,9.47
2023-01-31T08:52:09.915Z,11.83
2023-01-31T08:54:38.126Z,10.30
2023-01-31T08:57:07.715Z,15.57
2023-01-31T08:59:36.324Z,16.43
2023-01-31T09:02:04.755Z,16.53
2023-01-31T09:04:33.172Z,9.43
2023-01-31T09:07:01.693Z,12.57
2023-01-31T09:09:30.669Z,11.10
2023-01-31T09:11:58.845Z,14.47
2023-01-31T09:14:29.056Z,16.07
2023-01-31T09:16:57.321Z,17.80
2023-01-31T09:19:25.553Z,16.77
2023-01-31T09:21:53.712Z,15.27
2023-01-31T09:24:21.833Z,18.97
2023-01-31T09:26:50.004Z,16.03
2023-01-31T09:29:18.189Z,15.47
2023-01-31T09:31:47.758Z,17.67
2023-01-31T09:34:16.900Z,12.17
2023-01-31T09:36:45.424Z,14.03
2023-01-31T09:39:14.086Z,19.43
2023-01-31T09:41:47.065Z,10.47
2023-01-31T09:44:20.637Z,14.70
2023-01-31T09:46:56.768Z,15.00
2023-01-31T09:49:28.361Z,17.67
2023-01-31T09:51:59.757Z,12.33
2023-01-31T09:54:34.049Z,18.63
2023-01-31T09:57:10.510Z,12.33
2023-01-31T09:59:47.905Z,12.80
2023-01-31T10:02:32.283Z,14.77
2023-01-31T10:05:15.771Z,15.80
2023-01-31T10:07:51.076Z,8.43
2023-01-31T10:10:30.355Z,11.97
2023-01-31T10:13:01.461Z,10.53
2023-01-31T10:15:35.481Z,11.27
2023-01-31T10:18:08.773Z,13.90
2023-01-31T10:20:43.990Z,17.60
2023-01-31T10:23:16.862Z,12.83
2023-01-31T10:25:50.200Z,14.57
2023-01-31T10:28:23.198Z,13.23
2023-01-31T10:30:59.859Z,13.57
2023-01-31T10:33:41.325Z,12.27
2023-01-31T10:36:16.417Z,12.13
2023-01-31T10:38:59.619Z,10.67
2023-01-31T10:41:39.796Z,7.10
2023-01-31T10:44:14.480Z,8.17
2023-01-31T10:46:42.742Z,12.60
2023-01-31T10:49:12.633Z,17.47
2023-01-31T10:51:56.939Z,9.13
2023-01-31T10:54:37.731Z,16.53
2023-01-31T10:57:06.146Z,8.43
2023-01-31T10:59:37.385Z,7.38
2023-01-31T11:02:06.234Z,12.50
2023-01-31T11:04:42.407Z,13.20
2023-01-31T11:07:11.382Z,15.77
2023-01-31T11:09:43.153Z,12.53
2023-01-31T11:12:11.471Z,10.67
2023-01-31T11:14:43.333Z,11.13
2023-01-31T11:17:23.336Z,10.87
2023-01-31T11:19:59.506Z,9.63
2023-01-31T11:22:33.461Z,7.03
2023-01-31T11:25:05.169Z,8.20
2023-01-31T11:27:40.925Z,11.27
2023-01-31T11:30:27.053Z,7.80
2023-01-31T11:32:55.983Z,12.57
2023-01-31T11:35:28.946Z,10.73
2023-01-31T11:37:59.727Z,9.57
2023-01-31T11:40:31.632Z,8.50
2023-01-31T11:43:01.611Z,7.80
2023-01-31T11:45:32.194Z,11.40
2023-01-31T11:48:08.304Z,12.20
2023-01-31T11:50:40.106Z,14.87
2023-01-31T11:53:18.923Z,10.63
2023-01-31T11:55:48.899Z,9.50
2023-01-31T11:58:21.766Z,14.40
2023-01-31T12:00:56.795Z,10.23
2023-01-31T12:03:25.836Z,15.73
2023-01-31T12:06:07.608Z,12.47
2023-01-31T12:08:38.184Z,15.87
2023-01-31T12:11:07.716Z,8.77
2023-01-31T12:13:47.895Z,10.37
2023-01-31T12:16:20.330Z,11.77
2023-01-31T12:19:02.437Z,9.93
2023-01-31T12:21:41.416Z,6.47
2023-01-31T12:24:23.300Z,7.30
2023-01-31T12:26:55.914Z,12.10
2023-01-31T12:29:46.037Z,6.30
2023-01-31T12:32:33.215Z,11.07
2023-01-31T12:35:27.467Z,12.27
2023-01-31T12:38:06.147Z,10.30
2023-01-31T12:40:52.570Z,10.63
2023-01-31T12:43:39.447Z,10.33
2023-01-31T12:46:16.168Z,9.13
2023-01-31T12:49:10.388Z,4.97
2023-01-31T12:51:44.427Z,5.43
2023-01-31T12:54:28.231Z,9.47
2023-01-31T12:57:05.355Z,9.30
2023-01-31T12:59:52.764Z,5.30
2023-01-31T13:02:38.696Z,11.23
2023-01-31T13:05:28.226Z,9.77
2023-01-31T13:08:02.823Z,7.27
2023-01-31T13:10:39.003Z,10.33
2023-01-31T13:13:14.450Z,8.23
2023-01-31T13:15:48.758Z,8.03
2023-01-31T13:18:17.917Z,12.63
2023-01-31T13:20:51.343Z,10.03
2023-01-31T13:23:24.431Z,7.30
2023-01-31T13:26:00.438Z,8.63
2023-01-31T13:28:33.235Z,7.83
2023-01-31T13:31:03.863Z,10.13
2023-01-31T13:33:37.018Z,11.77
2023-01-31T13:36:17.950Z,8.60
2023-01-31T13:38:47.296Z,9.53
2023-01-31T13:41:23.517Z,4.27
2023-01-31T13:43:56.990Z,5.00
2023-01-31T13:46:33.322Z,12.17
2023-01-31T13:49:10.746Z,13.47
2023-01-31T13:51:45.609Z,10.83
2023-01-31T13:54:19.796Z,11.43
2023-01-31T13:56:54.489Z,12.00
2023-01-31T13:59:24.988Z,10.87
2023-01-31T14:01:55.361Z,6.50
2023-01-31T14:04:41.452Z,10.43
2023-01-31T14:07:21.252Z,7.23
2023-01-31T14:10:32.659Z,13.00
2023-01-31T14:13:27.772Z,10.30
2023-01-31T14:15:57.584Z,13.00
2023-01-31T14:18:42.955Z,8.80
2023-01-31T14:21:53.992Z,13.40
2023-01-31T14:25:06.577Z,12.20
2023-01-31T14:28:03.737Z,15.23
2023-01-31T14:30:42.742Z,15.80
2023-01-31T14:33:23.542Z,15.37
2023-01-31T14:36:21.217Z,13.13
2023-01-31T14:39:24.624Z,19.63
2023-01-31T14:42:11.989Z,8.60
2023-01-31T14:44:53.524Z,12.33
2023-01-31T14:47:38.043Z,13.80
2023-01-31T14:50:38.486Z,12.43
2023-01-31T14:53:19.427Z,10.63
2023-01-31T14:56:05.682Z,12.87
2023-01-31T14:58:36.113Z,12.03
2023-01-31T15:01:08.696Z,14.67
2023-01-31T15:03:40.078Z,21.10
2023-01-31T15:06:11.706Z,19.77
2023-01-31T15:08:46.213Z,11.90
2023-01-31T15:11:41.314Z,15.27
2023-01-31T15:14:35.110Z,13.03
2023-01-31T15:17:27.334Z,14.23
2023-01-31T15:20:07.454Z,13.90
2023-01-31T15:22:41.430Z,13.83
2023-01-31T15:25:23.439Z,12.83
2023-01-31T15:27:52.494Z,14.57
2023-01-31T15:30:24.684Z,14.63
2023-01-31T15:32:57.693Z,12.47
2023-01-31T15:35:30.761Z,12.73
2023-01-31T15:38:06.250Z,16.97
2023-01-31T15:40:34.604Z,13.27
2023-01-31T15:43:18.860Z,14.03
2023-01-31T15:45:51.420Z,11.37
2023-01-31T15:48:24.037Z,15.40
2023-01-31T15:50:54.037Z,13.60
2023-01-31T15:53:24.599Z,15.70
2023-01-31T15:55:56.186Z,13.80
2023-01-31T15:58:26.874Z,14.13
2023-01-31T16:00:56.816Z,10.83
2023-01-31T16:03:28.993Z,16.37
2023-01-31T16:05:58.631Z,16.47
2023-01-31T16:08:34.832Z,8.93
2023-01-31T16:11:04.864Z,16.90
2023-01-31T16:13:34.017Z,18.60
2023-01-31T16:16:02.287Z,12.00
2023-01-31T16:18:32.479Z,13.50
2023-01-31T16:21:15.819Z,16.17
2023-01-31T16:23:45.660Z,15.60
2023-01-31T16:26:16.800Z,12.17
2023-01-31T16:28:46.893Z,17.10
2023-01-31T16:31:17.197Z,17.33
2023-01-31T16:33:52.738Z,15.13
2023-01-31T16:36:25.306Z,20.90
2023-01-31T16:38:59.111Z,24.63
2023-01-31T16:41:41.850Z,15.20
2023-01-31T16:44:14.738Z,19.10
2023-01-31T16:46:45.561Z,17.33
2023-01-31T16:49:22.732Z,16.60
2023-01-31T16:51:52.236Z,15.40
2023-01-31T16:54:25.070Z,26.60
2023-01-31T16:57:21.967Z,24.73
2023-01-31T16:59:51.750Z,14.20
2023-01-31T17:02:24.829Z,15.73
2023-01-31T17:04:56.650Z,24.40
2023-01-31T17:07:26.915Z,21.47
2023-01-31T17:09:57.565Z,20.90
2023-01-31T17:12:28.409Z,25.13
2023-01-31T17:15:00.766Z,23.57
2023-01-31T17:17:34.386Z,22.30
2023-01-31T17:20:04.528Z,16.13
2023-01-31T17:22:32.807Z,19.50
2023-01-31T17:25:00.992Z,19.40
2023-01-31T17:27:29.161Z,15.67
2023-01-31T17:29:57.466Z,18.57
2023-01-31T17:32:25.666Z,17.00
2023-01-31T17:34:53.861Z,19.53
2023-01-31T17:37:31.183Z,21.90
2023-01-31T17:40:00.820Z,24.90
2023-01-31T17:42:29.036Z,22.93
2023-01-31T17:44:57.190Z,16.63
2023-01-31T17:47:27.057Z,19.90
2023-01-31T17:49:57.483Z,18.80
2023-01-31T17:52:27.791Z,21.13
2023-01-31T17:54:56.113Z,18.40
2023-01-31T17:57:24.619Z,26.63
2023-01-31T17:59:59.029Z,16.20
2023-01-31T18:02:35.844Z,16.03
2023-01-31T18:05:04.831Z,17.80
2023-01-31T18:07:34.434Z,20.07
2023-01-31T18:10:02.626Z,20.00
2023-01-31T18:12:31.023Z,15.20
2023-01-31T18:14:59.255Z,19.97
2023-01-31T18:17:27.743Z,23.27
2023-01-31T18:19:56.155Z,26.43
2023-01-31T18:22:25.074Z,21.83
2023-01-31T18:24:54.652Z,27.17
2023-01-31T18:27:22.927Z,21.13
2023-01-31T18:29:51.215Z,21.70
2023-01-31T18:32:20.321Z,24.27
2023-01-31T18:34:48.680Z,20.47
2023-01-31T18:37:20.351Z,23.37
2023-01-31T18:39:53.074Z,19.93
2023-01-31T18:42:22.946Z,22.67
2023-01-31T18:44:51.463Z,27.23
2023-01-31T18:47:19.728Z,21.83
2023-01-31T18:49:48.142Z,21.63
2023-01-31T18:52:17.068Z,17.03
2023-01-31T18:54:49.133Z,25.80
2023-01-31T18:57:17.387Z,20.87
2023-01-31T18:59:46.966Z,21.33
2023-01-31T19:02:15.418Z,21.97
2023-01-31T19:04:46.365Z,22.63
2023-01-31T19:07:14.592Z,40.10
2023-01-31T19:09:42.852Z,22.03
2023-01-31T19:12:11.044Z,33.10
2023-01-31T19:14:39.204Z,20.33
2023-01-31T19:17:08.858Z,24.87
2023-01-31T19:19:37.057Z,27.00
2023-01-31T19:22:05.730Z,23.17
2023-01-31T19:24:33.932Z,25.40
2023-01-31T19:27:02.142Z,25.93
2023-01-31T19:29:31.351Z,32.27
2023-01-31T19:31:59.565Z,35.90
2023-01-31T19:34:29.363Z,36.70
2023-01-31T19:36:58.010Z,33.33
2023-01-31T19:39:26.189Z,34.83
2023-01-31T19:41:54.516Z,31.97
2023-01-31T19:44:22.779Z,30.73
2023-01-31T19:46:52.151Z,32.67
2023-01-31T19:49:22.111Z,31.77
2023-01-31T19:51:51.752Z,30.13
2023-01-31T19:54:20.826Z,32.47
2023-01-31T19:56:49.143Z,27.53
2023-01-31T19:59:17.729Z,37.17
2023-01-31T20:01:46.010Z,37.33
2023-01-31T20:04:14.440Z,32.40
2023-01-31T20:06:43.022Z,32.57
2023-01-31T20:09:20.008Z,31.73
2023-01-31T20:11:51.627Z,30.20
2023-01-31T20:14:20.622Z,33.17
2023-01-31T20:16:49.100Z,29.93
2023-01-31T20:19:19.618Z,26.67
2023-01-31T20:21:48.818Z,28.20
2023-01-31T20:24:18.671Z,31.37
2023-01-31T20:26:47.111Z,28.20
2023-01-31T20:29:16.047Z,25.70
2023-01-31T20:31:44.485Z,25.60
2023-01-31T20:34:12.992Z,30.17
2023-01-31T20:36:41.229Z,30.53
2023-01-31T20:39:09.428Z,24.40
2023-01-31T20:41:39.048Z,24.37
2023-01-31T20:44:07.413Z,19.57
2023-01-31T20:46:36.099Z,23.90
2023-01-31T20:49:04.253Z,27.10
2023-01-31T20:51:32.538Z,23.53
2023-01-31T20:54:01.047Z,20.00
2023-01-31T20:56:29.448Z,23.20
2023-01-31T20:59:01.395Z,28.23
2023-01-31T21:01:29.755Z,23.87
2023-01-31T21:03:57.919Z,24.03
2023-01-31T21:06:26.141Z,25.90
2023-01-31T21:08:55.243Z,27.27
2023-01-31T21:11:23.809Z,26.10
2023-01-31T21:13:52.023Z,25.73
2023-01-31T21:16:21.622Z,20.87
2023-01-31T21:18:49.832Z,23.90
2023-01-31T21:21:23.399Z,21.83
2023-01-31T21:23:52.684Z,22.93
2023-01-31T21:26:22.351Z,22.63
2023-01-31T21:28:51.037Z,23.33
2023-01-31T21:31:22.023Z,18.23
2023-01-31T21:33:51.331Z,16.97
2023-01-31T21:36:21.172Z,20.53
2023-01-31T21:38:49.646Z,20.90
2023-01-31T21:41:35.537Z,21.83
2023-01-31T21:44:03.893Z,17.87
2023-01-31T21:46:33.867Z,17.70
2023-01-31T21:49:02.231Z,18.07
2023-01-31T21:51:30.361Z,18.73
2023-01-31T21:53:58.568Z,14.70
2023-01-31T21:56:29.752Z,18.30
2023-01-31T21:58:58.877Z,17.53
2023-01-31T22:01:29.076Z,14.67
2023-01-31T22:03:59.296Z,14.17
2023-01-31T22:06:31.540Z,16.87
2023-01-31T22:09:02.398Z,22.87
2023-01-31T22:11:33.190Z,21.03
2023-01-31T22:14:02.485Z,18.90
2023-01-31T22:16:31.040Z,17.77
2023-01-31T22:19:01.881Z,19.47
2023-01-31T22:21:31.873Z,25.90
2023-01-31T22:24:01.630Z,22.50
2023-01-31T22:26:31.477Z,20.03
2023-01-31T22:29:01.801Z,21.07
2023-01-31T22:31:30.943Z,19.30
2023-01-31T22:34:01.244Z,22.00
2023-01-31T22:36:29.493Z,21.93
2023-01-31T22:38:57.845Z,21.93
2023-01-31T22:41:26.350Z,21.03
2023-01-31T22:43:55.984Z,23.33
2023-01-31T22:46:26.328Z,24.43
2023-01-31T22:48:54.675Z,27.83
2023-01-31T22:51:25.857Z,25.77
2023-01-31T22:53:54.990Z,29.80
2023-01-31T22:56:25.257Z,28.07
2023-01-31T22:58:57.243Z,27.63
2023-01-31T23:01:27.522Z,29.47
2023-01-31T23:03:58.475Z,28.90
2023-01-31T23:06:29.420Z,28.70
2023-01-31T23:08:57.757Z,24.40
2023-01-31T23:11:26.298Z,31.83
2023-01-31T23:13:54.879Z,26.97
2023-01-31T23:16:45.880Z,23.00
2023-01-31T23:19:14.530Z,20.30
2023-01-31T23:21:44.714Z,24.80
2023-01-31T23:24:14.527Z,33.83
2023-01-31T23:26:43.086Z,25.00
2023-01-31T23:29:11.863Z,23.87
2023-01-31T23:31:40.279Z,21.70
2023-01-31T23:34:08.522Z,23.23
2023-01-31T23:36:37.086Z,19.67
2023-01-31T23:39:06.963Z,31.63
2023-01-31T23:41:35.143Z,31.70
2023-01-31T23:44:03.606Z,25.93
2023-01-31T23:46:32.114Z,22.43
2023-01-31T23:49:00.312Z,24.73
2023-01-31T23:51:30.660Z,19.40
2023-01-31T23:53:58.863Z,16.50
2023-01-31T23:56:28.412Z,20.43
2023-01-31T23:58:56.641Z,18.73
